sensor_id;sensor_type;location;lat;lon;timestamp;temperature;humidity
71801;HTU21D;59647;55.838;37.292;2023-04-19T00:00:43;12.06;35.50
71801;HTU21D;59647;55.838;37.292;2023-04-19T00:03:10;12.08;35.82
71801;HTU21D;59647;55.838;37.292;2023-04-19T00:05:36;12.11;36.21
71801;HTU21D;59647;55.838;37.292;2023-04-19T00:08:06;12.10;35.63
71801;HTU21D;59647;55.838;37.292;2023-04-19T00:10:33;12.07;36.04
71801;HTU21D;59647;55.838;37.292;2023-04-19T00:13:01;12.04;35.95
71801;HTU21D;59647;55.838;37.292;2023-04-19T00:15:27;12.04;35.84
71801;HTU21D;59647;55.838;37.292;2023-04-19T00:17:53;12.05;36.08
71801;HTU21D;59647;55.838;37.292;2023-04-19T00:20:20;12.02;35.65
71801;HTU21D;59647;55.838;37.292;2023-04-19T00:22:47;12.00;35.61
71801;HTU21D;59647;55.838;37.292;2023-04-19T00:25:13;12.01;35.63
71801;HTU21D;59647;55.838;37.292;2023-04-19T00:27:39;12.01;35.44
71801;HTU21D;59647;55.838;37.292;2023-04-19T00:30:05;11.97;35.67
71801;HTU21D;59647;55.838;37.292;2023-04-19T00:32:32;12.00;35.89
71801;HTU21D;59647;55.838;37.292;2023-04-19T00:34:59;12.00;35.73
71801;HTU21D;59647;55.838;37.292;2023-04-19T00:37:25;11.96;35.45
71801;HTU21D;59647;55.838;37.292;2023-04-19T00:39:50;11.90;35.41
71801;HTU21D;59647;55.838;37.292;2023-04-19T00:42:17;11.88;35.79
71801;HTU21D;59647;55.838;37.292;2023-04-19T00:44:45;11.89;35.94
71801;HTU21D;59647;55.838;37.292;2023-04-19T00:47:11;11.89;35.68
71801;HTU21D;59647;55.838;37.292;2023-04-19T00:49:37;11.91;35.85
71801;HTU21D;59647;55.838;37.292;2023-04-19T00:52:03;11.84;36.00
71801;HTU21D;59647;55.838;37.292;2023-04-19T00:54:32;11.79;36.02
71801;HTU21D;59647;55.838;37.292;2023-04-19T00:56:57;11.73;36.02
71801;HTU21D;59647;55.838;37.292;2023-04-19T00:59:23;11.73;35.87
71801;HTU21D;59647;55.838;37.292;2023-04-19T01:01:50;11.73;36.14
71801;HTU21D;59647;55.838;37.292;2023-04-19T01:04:16;11.75;36.13
71801;HTU21D;59647;55.838;37.292;2023-04-19T01:06:42;11.71;36.18
71801;HTU21D;59647;55.838;37.292;2023-04-19T01:09:10;11.68;36.32
71801;HTU21D;59647;55.838;37.292;2023-04-19T01:11:39;11.66;36.27
71801;HTU21D;59647;55.838;37.292;2023-04-19T01:14:07;11.67;36.29
71801;HTU21D;59647;55.838;37.292;2023-04-19T01:16:33;11.66;36.33
71801;HTU21D;59647;55.838;37.292;2023-04-19T01:19:01;11.60;36.31
71801;HTU21D;59647;55.838;37.292;2023-04-19T01:21:27;11.66;36.24
71801;HTU21D;59647;55.838;37.292;2023-04-19T01:23:57;11.64;36.36
71801;HTU21D;59647;55.838;37.292;2023-04-19T01:26:23;11.59;36.39
71801;HTU21D;59647;55.838;37.292;2023-04-19T01:28:49;11.55;36.59
71801;HTU21D;59647;55.838;37.292;2023-04-19T01:31:15;11.56;36.50
71801;HTU21D;59647;55.838;37.292;2023-04-19T01:33:42;11.57;36.54
71801;HTU21D;59647;55.838;37.292;2023-04-19T01:36:09;11.54;36.63
71801;HTU21D;59647;55.838;37.292;2023-04-19T01:38:35;11.56;36.83
71801;HTU21D;59647;55.838;37.292;2023-04-19T01:41:01;11.53;36.82
71801;HTU21D;59647;55.838;37.292;2023-04-19T01:43:27;11.51;36.98
71801;HTU21D;59647;55.838;37.292;2023-04-19T01:45:53;11.51;37.10
71801;HTU21D;59647;55.838;37.292;2023-04-19T01:48:19;11.52;37.05
71801;HTU21D;59647;55.838;37.292;2023-04-19T01:50:45;11.53;37.12
71801;HTU21D;59647;55.838;37.292;2023-04-19T01:53:12;11.51;37.09
71801;HTU21D;59647;55.838;37.292;2023-04-19T01:55:38;11.49;37.14
71801;HTU21D;59647;55.838;37.292;2023-04-19T01:58:04;11.48;36.98
71801;HTU21D;59647;55.838;37.292;2023-04-19T02:00:31;11.45;37.15
71801;HTU21D;59647;55.838;37.292;2023-04-19T02:02:57;11.44;37.14
71801;HTU21D;59647;55.838;37.292;2023-04-19T02:05:23;11.43;36.98
71801;HTU21D;59647;55.838;37.292;2023-04-19T02:07:49;11.34;37.42
71801;HTU21D;59647;55.838;37.292;2023-04-19T02:10:15;11.38;37.06
71801;HTU21D;59647;55.838;37.292;2023-04-19T02:12:42;11.32;37.23
71801;HTU21D;59647;55.838;37.292;2023-04-19T02:15:11;11.29;37.26
71801;HTU21D;59647;55.838;37.292;2023-04-19T02:17:37;11.30;37.40
71801;HTU21D;59647;55.838;37.292;2023-04-19T02:20:04;11.28;37.30
71801;HTU21D;59647;55.838;37.292;2023-04-19T02:22:31;11.27;37.21
71801;HTU21D;59647;55.838;37.292;2023-04-19T02:24:58;11.23;37.40
71801;HTU21D;59647;55.838;37.292;2023-04-19T02:27:31;11.12;38.38
71801;HTU21D;59647;55.838;37.292;2023-04-19T02:29:58;11.12;38.29
71801;HTU21D;59647;55.838;37.292;2023-04-19T02:32:24;11.08;38.59
71801;HTU21D;59647;55.838;37.292;2023-04-19T02:34:50;11.11;38.07
71801;HTU21D;59647;55.838;37.292;2023-04-19T02:37:17;11.13;38.17
71801;HTU21D;59647;55.838;37.292;2023-04-19T02:39:44;11.15;37.93
71801;HTU21D;59647;55.838;37.292;2023-04-19T02:42:11;11.14;38.07
71801;HTU21D;59647;55.838;37.292;2023-04-19T02:44:38;11.12;39.16
71801;HTU21D;59647;55.838;37.292;2023-04-19T02:47:04;11.15;38.78
71801;HTU21D;59647;55.838;37.292;2023-04-19T02:49:30;11.20;38.49
71801;HTU21D;59647;55.838;37.292;2023-04-19T02:52:02;11.24;38.96
71801;HTU21D;59647;55.838;37.292;2023-04-19T02:54:30;11.25;38.35
71801;HTU21D;59647;55.838;37.292;2023-04-19T02:56:58;11.30;38.49
71801;HTU21D;59647;55.838;37.292;2023-04-19T02:59:24;11.36;38.22
71801;HTU21D;59647;55.838;37.292;2023-04-19T03:01:51;11.39;38.22
71801;HTU21D;59647;55.838;37.292;2023-04-19T03:04:17;11.41;38.20
71801;HTU21D;59647;55.838;37.292;2023-04-19T03:06:43;11.39;38.73
71801;HTU21D;59647;55.838;37.292;2023-04-19T03:09:10;11.42;38.08
71801;HTU21D;59647;55.838;37.292;2023-04-19T03:11:36;11.40;38.26
71801;HTU21D;59647;55.838;37.292;2023-04-19T03:14:03;11.36;38.68
71801;HTU21D;59647;55.838;37.292;2023-04-19T03:16:29;11.31;39.12
71801;HTU21D;59647;55.838;37.292;2023-04-19T03:18:55;11.34;38.40
71801;HTU21D;59647;55.838;37.292;2023-04-19T03:21:24;11.36;38.37
71801;HTU21D;59647;55.838;37.292;2023-04-19T03:23:55;11.32;38.85
71801;HTU21D;59647;55.838;37.292;2023-04-19T03:26:25;11.31;38.44
71801;HTU21D;59647;55.838;37.292;2023-04-19T03:28:53;11.28;38.76
71801;HTU21D;59647;55.838;37.292;2023-04-19T03:31:24;11.31;38.26
71801;HTU21D;59647;55.838;37.292;2023-04-19T03:33:55;11.29;38.27
71801;HTU21D;59647;55.838;37.292;2023-04-19T03:36:26;11.27;38.53
71801;HTU21D;59647;55.838;37.292;2023-04-19T03:38:52;11.24;38.55
71801;HTU21D;59647;55.838;37.292;2023-04-19T03:41:23;11.27;38.33
71801;HTU21D;59647;55.838;37.292;2023-04-19T03:43:58;11.29;38.49
71801;HTU21D;59647;55.838;37.292;2023-04-19T03:46:24;11.29;38.61
71801;HTU21D;59647;55.838;37.292;2023-04-19T03:48:50;11.37;38.13
71801;HTU21D;59647;55.838;37.292;2023-04-19T03:51:18;11.37;38.21
71801;HTU21D;59647;55.838;37.292;2023-04-19T03:53:44;11.37;38.29
71801;HTU21D;59647;55.838;37.292;2023-04-19T03:56:10;11.38;38.44
71801;HTU21D;59647;55.838;37.292;2023-04-19T03:58:36;11.41;38.35
71801;HTU21D;59647;55.838;37.292;2023-04-19T04:01:06;11.41;38.65
71801;HTU21D;59647;55.838;37.292;2023-04-19T04:03:34;11.43;39.07
71801;HTU21D;59647;55.838;37.292;2023-04-19T04:06:03;11.46;39.04
71801;HTU21D;59647;55.838;37.292;2023-04-19T04:08:29;11.57;38.54
71801;HTU21D;59647;55.838;37.292;2023-04-19T04:10:55;11.61;39.20
71801;HTU21D;59647;55.838;37.292;2023-04-19T04:13:21;11.70;38.36
71801;HTU21D;59647;55.838;37.292;2023-04-19T04:15:57;11.76;38.11
71801;HTU21D;59647;55.838;37.292;2023-04-19T04:18:23;11.77;38.21
71801;HTU21D;59647;55.838;37.292;2023-04-19T04:20:52;11.83;38.14
71801;HTU21D;59647;55.838;37.292;2023-04-19T04:23:18;11.85;38.65
71801;HTU21D;59647;55.838;37.292;2023-04-19T04:25:58;11.93;38.16
71801;HTU21D;59647;55.838;37.292;2023-04-19T04:28:31;11.96;38.36
71801;HTU21D;59647;55.838;37.292;2023-04-19T04:30:58;12.02;38.21
71801;HTU21D;59647;55.838;37.292;2023-04-19T04:33:26;12.12;38.00
71801;HTU21D;59647;55.838;37.292;2023-04-19T04:35:54;12.18;37.99
71801;HTU21D;59647;55.838;37.292;2023-04-19T04:38:22;12.22;38.06
71801;HTU21D;59647;55.838;37.292;2023-04-19T04:40:49;12.26;37.89
71801;HTU21D;59647;55.838;37.292;2023-04-19T04:43:16;12.31;37.83
71801;HTU21D;59647;55.838;37.292;2023-04-19T04:45:42;12.37;37.63
71801;HTU21D;59647;55.838;37.292;2023-04-19T04:48:09;12.38;37.64
71801;HTU21D;59647;55.838;37.292;2023-04-19T04:50:35;12.41;37.40
71801;HTU21D;59647;55.838;37.292;2023-04-19T04:53:02;12.47;37.99
71801;HTU21D;59647;55.838;37.292;2023-04-19T04:55:30;12.62;37.42
71801;HTU21D;59647;55.838;37.292;2023-04-19T04:57:57;12.77;37.30
71801;HTU21D;59647;55.838;37.292;2023-04-19T05:00:31;12.86;37.25
71801;HTU21D;59647;55.838;37.292;2023-04-19T05:03:01;13.05;37.24
71801;HTU21D;59647;55.838;37.292;2023-04-19T05:05:29;13.19;37.01
71801;HTU21D;59647;55.838;37.292;2023-04-19T05:07:55;13.35;36.71
71801;HTU21D;59647;55.838;37.292;2023-04-19T05:10:21;13.45;35.51
71801;HTU21D;59647;55.838;37.292;2023-04-19T05:12:47;13.45;35.36
71801;HTU21D;59647;55.838;37.292;2023-04-19T05:15:14;13.50;35.88
71801;HTU21D;59647;55.838;37.292;2023-04-19T05:17:46;13.60;35.96
71801;HTU21D;59647;55.838;37.292;2023-04-19T05:20:13;13.71;35.85
71801;HTU21D;59647;55.838;37.292;2023-04-19T05:22:40;13.75;35.79
71801;HTU21D;59647;55.838;37.292;2023-04-19T05:25:09;13.84;35.28
71801;HTU21D;59647;55.838;37.292;2023-04-19T05:27:35;14.03;35.40
71801;HTU21D;59647;55.838;37.292;2023-04-19T05:30:03;14.15;34.47
71801;HTU21D;59647;55.838;37.292;2023-04-19T05:32:31;14.41;35.02
71801;HTU21D;59647;55.838;37.292;2023-04-19T05:34:58;14.67;35.07
71801;HTU21D;59647;55.838;37.292;2023-04-19T05:37:24;14.75;31.16
71801;HTU21D;59647;55.838;37.292;2023-04-19T05:39:50;14.69;33.74
71801;HTU21D;59647;55.838;37.292;2023-04-19T05:42:17;14.63;31.62
71801;HTU21D;59647;55.838;37.292;2023-04-19T05:44:43;14.67;32.28
71801;HTU21D;59647;55.838;37.292;2023-04-19T05:47:10;14.74;30.87
71801;HTU21D;59647;55.838;37.292;2023-04-19T05:49:55;14.80;30.44
71801;HTU21D;59647;55.838;37.292;2023-04-19T05:52:31;14.70;31.79
71801;HTU21D;59647;55.838;37.292;2023-04-19T05:54:59;14.74;31.51
71801;HTU21D;59647;55.838;37.292;2023-04-19T05:57:26;14.82;32.14
71801;HTU21D;59647;55.838;37.292;2023-04-19T05:59:52;14.96;32.32
71801;HTU21D;59647;55.838;37.292;2023-04-19T06:02:22;15.13;31.78
71801;HTU21D;59647;55.838;37.292;2023-04-19T06:04:48;15.29;29.79
71801;HTU21D;59647;55.838;37.292;2023-04-19T06:07:14;15.37;30.83
71801;HTU21D;59647;55.838;37.292;2023-04-19T06:09:40;15.56;30.69
71801;HTU21D;59647;55.838;37.292;2023-04-19T06:12:07;15.74;29.88
71801;HTU21D;59647;55.838;37.292;2023-04-19T06:14:32;15.86;30.09
71801;HTU21D;59647;55.838;37.292;2023-04-19T06:17:00;15.78;29.69
71801;HTU21D;59647;55.838;37.292;2023-04-19T06:19:25;15.66;30.01
71801;HTU21D;59647;55.838;37.292;2023-04-19T06:21:51;15.62;28.13
71801;HTU21D;59647;55.838;37.292;2023-04-19T06:24:17;15.85;30.26
71801;HTU21D;59647;55.838;37.292;2023-04-19T06:26:43;15.83;28.97
71801;HTU21D;59647;55.838;37.292;2023-04-19T06:29:09;15.74;27.91
71801;HTU21D;59647;55.838;37.292;2023-04-19T06:31:35;16.04;27.04
71801;HTU21D;59647;55.838;37.292;2023-04-19T06:34:01;16.19;27.07
71801;HTU21D;59647;55.838;37.292;2023-04-19T06:36:27;16.34;27.07
71801;HTU21D;59647;55.838;37.292;2023-04-19T06:38:53;16.44;27.11
71801;HTU21D;59647;55.838;37.292;2023-04-19T06:41:18;16.69;27.29
71801;HTU21D;59647;55.838;37.292;2023-04-19T06:43:45;16.82;27.64
71801;HTU21D;59647;55.838;37.292;2023-04-19T06:46:11;16.95;27.17
71801;HTU21D;59647;55.838;37.292;2023-04-19T06:48:38;17.04;28.29
71801;HTU21D;59647;55.838;37.292;2023-04-19T06:51:04;16.95;27.89
71801;HTU21D;59647;55.838;37.292;2023-04-19T06:53:30;16.56;27.96
71801;HTU21D;59647;55.838;37.292;2023-04-19T06:55:58;16.28;27.04
71801;HTU21D;59647;55.838;37.292;2023-04-19T06:58:26;16.19;27.26
71801;HTU21D;59647;55.838;37.292;2023-04-19T07:00:52;16.30;27.23
71801;HTU21D;59647;55.838;37.292;2023-04-19T07:03:18;16.36;28.09
71801;HTU21D;59647;55.838;37.292;2023-04-19T07:05:44;16.46;27.87
71801;HTU21D;59647;55.838;37.292;2023-04-19T07:08:10;16.67;28.03
71801;HTU21D;59647;55.838;37.292;2023-04-19T07:10:36;16.93;26.10
71801;HTU21D;59647;55.838;37.292;2023-04-19T07:13:02;16.96;26.24
71801;HTU21D;59647;55.838;37.292;2023-04-19T07:15:28;17.10;27.98
71801;HTU21D;59647;55.838;37.292;2023-04-19T07:17:54;16.85;24.96
71801;HTU21D;59647;55.838;37.292;2023-04-19T07:20:20;16.55;23.77
71801;HTU21D;59647;55.838;37.292;2023-04-19T07:22:46;16.50;25.49
71801;HTU21D;59647;55.838;37.292;2023-04-19T07:25:13;16.49;26.36
71801;HTU21D;59647;55.838;37.292;2023-04-19T07:27:39;16.51;25.45
71801;HTU21D;59647;55.838;37.292;2023-04-19T07:30:05;16.63;26.52
71801;HTU21D;59647;55.838;37.292;2023-04-19T07:32:31;16.61;26.14
71801;HTU21D;59647;55.838;37.292;2023-04-19T07:34:57;16.64;25.52
71801;HTU21D;59647;55.838;37.292;2023-04-19T07:37:23;16.84;25.96
71801;HTU21D;59647;55.838;37.292;2023-04-19T07:39:49;16.77;25.02
71801;HTU21D;59647;55.838;37.292;2023-04-19T07:42:15;16.79;25.76
71801;HTU21D;59647;55.838;37.292;2023-04-19T07:44:41;16.64;25.22
71801;HTU21D;59647;55.838;37.292;2023-04-19T07:47:06;16.73;25.28
71801;HTU21D;59647;55.838;37.292;2023-04-19T07:49:33;16.71;23.96
71801;HTU21D;59647;55.838;37.292;2023-04-19T07:52:00;16.77;25.78
71801;HTU21D;59647;55.838;37.292;2023-04-19T07:54:26;16.72;25.17
71801;HTU21D;59647;55.838;37.292;2023-04-19T07:56:52;16.65;25.52
71801;HTU21D;59647;55.838;37.292;2023-04-19T07:59:18;16.64;25.98
71801;HTU21D;59647;55.838;37.292;2023-04-19T08:01:44;16.72;26.40
71801;HTU21D;59647;55.838;37.292;2023-04-19T08:04:10;16.78;26.20
71801;HTU21D;59647;55.838;37.292;2023-04-19T08:06:36;16.67;25.96
71801;HTU21D;59647;55.838;37.292;2023-04-19T08:09:04;16.55;26.02
71801;HTU21D;59647;55.838;37.292;2023-04-19T08:11:30;16.48;25.96
71801;HTU21D;59647;55.838;37.292;2023-04-19T08:13:56;16.34;25.88
71801;HTU21D;59647;55.838;37.292;2023-04-19T08:16:22;16.35;25.78
71801;HTU21D;59647;55.838;37.292;2023-04-19T08:18:48;16.37;25.81
71801;HTU21D;59647;55.838;37.292;2023-04-19T08:21:17;16.44;26.23
71801;HTU21D;59647;55.838;37.292;2023-04-19T08:23:43;16.48;26.54
71801;HTU21D;59647;55.838;37.292;2023-04-19T08:26:09;16.49;26.10
71801;HTU21D;59647;55.838;37.292;2023-04-19T08:28:34;16.46;25.97
71801;HTU21D;59647;55.838;37.292;2023-04-19T08:31:04;16.50;26.23
71801;HTU21D;59647;55.838;37.292;2023-04-19T08:33:32;16.46;25.87
71801;HTU21D;59647;55.838;37.292;2023-04-19T08:35:58;16.60;25.87
71801;HTU21D;59647;55.838;37.292;2023-04-19T08:38:23;16.73;26.01
71801;HTU21D;59647;55.838;37.292;2023-04-19T08:41:10;16.98;26.05
71801;HTU21D;59647;55.838;37.292;2023-04-19T08:43:42;16.89;25.20
71801;HTU21D;59647;55.838;37.292;2023-04-19T08:46:10;17.13;24.98
71801;HTU21D;59647;55.838;37.292;2023-04-19T08:48:36;17.02;23.66
71801;HTU21D;59647;55.838;37.292;2023-04-19T08:51:03;16.81;24.15
71801;HTU21D;59647;55.838;37.292;2023-04-19T08:53:30;16.92;25.36
71801;HTU21D;59647;55.838;37.292;2023-04-19T08:56:04;16.99;24.94
71801;HTU21D;59647;55.838;37.292;2023-04-19T08:58:32;17.04;24.36
71801;HTU21D;59647;55.838;37.292;2023-04-19T09:01:05;17.15;24.57
71801;HTU21D;59647;55.838;37.292;2023-04-19T09:03:34;17.06;23.92
71801;HTU21D;59647;55.838;37.292;2023-04-19T09:06:01;17.02;24.59
71801;HTU21D;59647;55.838;37.292;2023-04-19T09:08:31;17.22;24.84
71801;HTU21D;59647;55.838;37.292;2023-04-19T09:11:21;17.32;24.33
71801;HTU21D;59647;55.838;37.292;2023-04-19T09:14:07;17.47;23.76
71801;HTU21D;59647;55.838;37.292;2023-04-19T09:16:34;17.53;24.87
71801;HTU21D;59647;55.838;37.292;2023-04-19T09:19:01;17.72;24.76
71801;HTU21D;59647;55.838;37.292;2023-04-19T09:21:31;17.68;24.16
71801;HTU21D;59647;55.838;37.292;2023-04-19T09:24:02;17.77;24.30
71801;HTU21D;59647;55.838;37.292;2023-04-19T09:26:34;17.61;23.05
71801;HTU21D;59647;55.838;37.292;2023-04-19T09:29:05;17.54;23.63
71801;HTU21D;59647;55.838;37.292;2023-04-19T09:31:36;17.75;23.82
71801;HTU21D;59647;55.838;37.292;2023-04-19T09:36:39;18.13;23.49
71801;HTU21D;59647;55.838;37.292;2023-04-19T09:39:06;18.51;22.50
71801;HTU21D;59647;55.838;37.292;2023-04-19T09:41:53;18.51;22.24
71801;HTU21D;59647;55.838;37.292;2023-04-19T09:44:25;18.51;22.83
71801;HTU21D;59647;55.838;37.292;2023-04-19T09:46:52;18.65;23.53
71801;HTU21D;59647;55.838;37.292;2023-04-19T09:50:02;19.03;23.45
71801;HTU21D;59647;55.838;37.292;2023-04-19T09:52:38;18.82;23.73
71801;HTU21D;59647;55.838;37.292;2023-04-19T09:55:05;18.56;22.98
71801;HTU21D;59647;55.838;37.292;2023-04-19T09:57:36;18.49;22.93
71801;HTU21D;59647;55.838;37.292;2023-04-19T10:00:05;18.54;23.51
71801;HTU21D;59647;55.838;37.292;2023-04-19T10:02:39;18.72;23.43
71801;HTU21D;59647;55.838;37.292;2023-04-19T10:05:07;18.54;22.36
71801;HTU21D;59647;55.838;37.292;2023-04-19T10:07:39;18.46;22.72
71801;HTU21D;59647;55.838;37.292;2023-04-19T10:10:05;18.57;23.59
71801;HTU21D;59647;55.838;37.292;2023-04-19T10:12:38;18.92;22.97
71801;HTU21D;59647;55.838;37.292;2023-04-19T10:15:05;19.31;22.57
71801;HTU21D;59647;55.838;37.292;2023-04-19T10:17:32;19.30;22.38
71801;HTU21D;59647;55.838;37.292;2023-04-19T10:20:02;19.02;23.09
71801;HTU21D;59647;55.838;37.292;2023-04-19T10:22:35;19.23;23.40
71801;HTU21D;59647;55.838;37.292;2023-04-19T10:25:14;19.26;23.11
71801;HTU21D;59647;55.838;37.292;2023-04-19T10:27:44;19.56;22.68
71801;HTU21D;59647;55.838;37.292;2023-04-19T10:30:18;19.65;23.22
71801;HTU21D;59647;55.838;37.292;2023-04-19T10:32:59;19.58;22.99
71801;HTU21D;59647;55.838;37.292;2023-04-19T10:35:34;19.41;21.53
71801;HTU21D;59647;55.838;37.292;2023-04-19T10:43:29;19.40;22.84
71801;HTU21D;59647;55.838;37.292;2023-04-19T10:46:06;19.56;21.72
71801;HTU21D;59647;55.838;37.292;2023-04-19T10:48:34;19.37;22.99
71801;HTU21D;59647;55.838;37.292;2023-04-19T10:53:51;19.18;22.32
71801;HTU21D;59647;55.838;37.292;2023-04-19T10:56:57;19.53;22.39
71801;HTU21D;59647;55.838;37.292;2023-04-19T10:59:37;19.73;21.81
71801;HTU21D;59647;55.838;37.292;2023-04-19T11:02:25;20.02;20.15
71801;HTU21D;59647;55.838;37.292;2023-04-19T11:07:19;19.70;21.68
71801;HTU21D;59647;55.838;37.292;2023-04-19T11:09:50;19.53;21.98
71801;HTU21D;59647;55.838;37.292;2023-04-19T11:12:18;19.37;22.05
71801;HTU21D;59647;55.838;37.292;2023-04-19T11:14:46;19.39;22.33
71801;HTU21D;59647;55.838;37.292;2023-04-19T11:19:54;19.61;22.34
71801;HTU21D;59647;55.838;37.292;2023-04-19T11:22:40;19.50;22.51
71801;HTU21D;59647;55.838;37.292;2023-04-19T11:25:19;19.20;20.74
71801;HTU21D;59647;55.838;37.292;2023-04-19T11:27:49;19.53;22.52
71801;HTU21D;59647;55.838;37.292;2023-04-19T11:30:27;19.32;21.88
71801;HTU21D;59647;55.838;37.292;2023-04-19T11:32:55;19.28;22.06
71801;HTU21D;59647;55.838;37.292;2023-04-19T11:35:23;19.66;22.08
71801;HTU21D;59647;55.838;37.292;2023-04-19T11:37:50;19.82;21.78
71801;HTU21D;59647;55.838;37.292;2023-04-19T11:40:20;19.72;22.17
71801;HTU21D;59647;55.838;37.292;2023-04-19T11:42:53;19.85;22.05
71801;HTU21D;59647;55.838;37.292;2023-04-19T11:45:27;20.09;21.03
71801;HTU21D;59647;55.838;37.292;2023-04-19T11:47:55;19.96;21.15
71801;HTU21D;59647;55.838;37.292;2023-04-19T11:50:43;20.03;20.54
71801;HTU21D;59647;55.838;37.292;2023-04-19T11:53:14;20.34;22.07
71801;HTU21D;59647;55.838;37.292;2023-04-19T11:55:48;20.72;21.69
71801;HTU21D;59647;55.838;37.292;2023-04-19T12:00:57;20.50;20.93
71801;HTU21D;59647;55.838;37.292;2023-04-19T12:03:25;20.28;19.26
71801;HTU21D;59647;55.838;37.292;2023-04-19T12:05:55;20.12;20.10
71801;HTU21D;59647;55.838;37.292;2023-04-19T12:08:40;20.15;19.81
71801;HTU21D;59647;55.838;37.292;2023-04-19T12:11:07;19.98;21.57
71801;HTU21D;59647;55.838;37.292;2023-04-19T12:13:34;19.94;21.42
71801;HTU21D;59647;55.838;37.292;2023-04-19T12:16:01;19.84;21.64
71801;HTU21D;59647;55.838;37.292;2023-04-19T12:18:47;19.74;21.18
71801;HTU21D;59647;55.838;37.292;2023-04-19T12:23:59;20.34;20.82
71801;HTU21D;59647;55.838;37.292;2023-04-19T12:26:27;20.63;21.40
71801;HTU21D;59647;55.838;37.292;2023-04-19T12:28:54;20.56;20.66
71801;HTU21D;59647;55.838;37.292;2023-04-19T12:31:20;20.45;20.50
71801;HTU21D;59647;55.838;37.292;2023-04-19T12:33:46;20.58;20.76
71801;HTU21D;59647;55.838;37.292;2023-04-19T12:36:12;20.73;20.36
71801;HTU21D;59647;55.838;37.292;2023-04-19T12:38:39;20.28;19.09
71801;HTU21D;59647;55.838;37.292;2023-04-19T12:41:05;19.77;18.61
71801;HTU21D;59647;55.838;37.292;2023-04-19T12:43:31;19.71;20.02
71801;HTU21D;59647;55.838;37.292;2023-04-19T12:45:58;19.77;20.76
71801;HTU21D;59647;55.838;37.292;2023-04-19T12:48:27;20.11;20.95
71801;HTU21D;59647;55.838;37.292;2023-04-19T12:50:53;20.09;20.49
71801;HTU21D;59647;55.838;37.292;2023-04-19T12:53:19;20.02;20.71
71801;HTU21D;59647;55.838;37.292;2023-04-19T12:55:47;20.27;20.00
71801;HTU21D;59647;55.838;37.292;2023-04-19T12:58:15;20.53;19.87
71801;HTU21D;59647;55.838;37.292;2023-04-19T13:00:41;20.60;18.58
71801;HTU21D;59647;55.838;37.292;2023-04-19T13:03:07;20.22;19.09
71801;HTU21D;59647;55.838;37.292;2023-04-19T13:05:37;20.02;19.90
71801;HTU21D;59647;55.838;37.292;2023-04-19T13:08:04;19.77;19.20
71801;HTU21D;59647;55.838;37.292;2023-04-19T13:10:30;19.72;20.00
71801;HTU21D;59647;55.838;37.292;2023-04-19T13:12:56;20.15;20.66
71801;HTU21D;59647;55.838;37.292;2023-04-19T13:15:24;20.69;20.24
71801;HTU21D;59647;55.838;37.292;2023-04-19T13:17:50;21.10;20.58
71801;HTU21D;59647;55.838;37.292;2023-04-19T13:20:18;21.20;19.38
71801;HTU21D;59647;55.838;37.292;2023-04-19T13:22:45;21.33;18.42
71801;HTU21D;59647;55.838;37.292;2023-04-19T13:25:13;21.42;19.68
71801;HTU21D;59647;55.838;37.292;2023-04-19T13:27:39;21.69;19.87
71801;HTU21D;59647;55.838;37.292;2023-04-19T13:30:05;21.91;19.72
71801;HTU21D;59647;55.838;37.292;2023-04-19T13:32:33;21.51;19.79
71801;HTU21D;59647;55.838;37.292;2023-04-19T13:34:59;21.16;19.30
71801;HTU21D;59647;55.838;37.292;2023-04-19T13:37:26;20.72;18.30
71801;HTU21D;59647;55.838;37.292;2023-04-19T13:39:52;20.37;19.18
71801;HTU21D;59647;55.838;37.292;2023-04-19T13:42:18;20.11;18.54
71801;HTU21D;59647;55.838;37.292;2023-04-19T13:44:44;19.82;19.09
71801;HTU21D;59647;55.838;37.292;2023-04-19T13:47:10;19.70;19.04
71801;HTU21D;59647;55.838;37.292;2023-04-19T13:49:36;19.52;18.84
71801;HTU21D;59647;55.838;37.292;2023-04-19T13:52:02;19.45;19.18
71801;HTU21D;59647;55.838;37.292;2023-04-19T13:54:28;19.50;19.62
71801;HTU21D;59647;55.838;37.292;2023-04-19T13:56:53;19.67;19.60
71801;HTU21D;59647;55.838;37.292;2023-04-19T13:59:20;19.71;19.54
71801;HTU21D;59647;55.838;37.292;2023-04-19T14:01:46;19.53;18.38
71801;HTU21D;59647;55.838;37.292;2023-04-19T14:04:12;19.40;19.21
71801;HTU21D;59647;55.838;37.292;2023-04-19T14:06:38;19.29;19.15
71801;HTU21D;59647;55.838;37.292;2023-04-19T14:09:04;19.23;19.07
71801;HTU21D;59647;55.838;37.292;2023-04-19T14:11:29;19.35;19.69
71801;HTU21D;59647;55.838;37.292;2023-04-19T14:13:56;19.55;20.02
71801;HTU21D;59647;55.838;37.292;2023-04-19T14:16:22;19.90;19.96
71801;HTU21D;59647;55.838;37.292;2023-04-19T14:18:50;20.24;20.08
71801;HTU21D;59647;55.838;37.292;2023-04-19T14:21:16;20.47;19.85
71801;HTU21D;59647;55.838;37.292;2023-04-19T14:23:42;20.76;18.48
71801;HTU21D;59647;55.838;37.292;2023-04-19T14:26:08;20.57;19.36
71801;HTU21D;59647;55.838;37.292;2023-04-19T14:28:34;20.37;19.41
71801;HTU21D;59647;55.838;37.292;2023-04-19T14:31:00;20.39;19.25
71801;HTU21D;59647;55.838;37.292;2023-04-19T14:33:26;20.22;18.53
71801;HTU21D;59647;55.838;37.292;2023-04-19T14:35:52;19.97;19.14
71801;HTU21D;59647;55.838;37.292;2023-04-19T14:38:18;19.79;18.38
71801;HTU21D;59647;55.838;37.292;2023-04-19T14:40:45;19.79;19.18
71801;HTU21D;59647;55.838;37.292;2023-04-19T14:43:13;19.79;17.64
71801;HTU21D;59647;55.838;37.292;2023-04-19T14:45:40;19.58;18.08
71801;HTU21D;59647;55.838;37.292;2023-04-19T14:48:06;19.56;19.51
71801;HTU21D;59647;55.838;37.292;2023-04-19T14:50:32;19.54;19.04
71801;HTU21D;59647;55.838;37.292;2023-04-19T14:52:58;19.45;19.28
71801;HTU21D;59647;55.838;37.292;2023-04-19T14:55:24;19.33;19.44
71801;HTU21D;59647;55.838;37.292;2023-04-19T14:57:52;19.21;19.51
71801;HTU21D;59647;55.838;37.292;2023-04-19T15:00:19;19.10;19.61
71801;HTU21D;59647;55.838;37.292;2023-04-19T15:02:45;19.06;19.59
71801;HTU21D;59647;55.838;37.292;2023-04-19T15:05:11;18.87;18.34
71801;HTU21D;59647;55.838;37.292;2023-04-19T15:07:37;18.70;18.96
71801;HTU21D;59647;55.838;37.292;2023-04-19T15:10:03;18.55;19.10
71801;HTU21D;59647;55.838;37.292;2023-04-19T15:12:30;18.42;19.23
71801;HTU21D;59647;55.838;37.292;2023-04-19T15:14:56;18.36;19.24
71801;HTU21D;59647;55.838;37.292;2023-04-19T15:17:21;18.24;19.60
71801;HTU21D;59647;55.838;37.292;2023-04-19T15:19:47;18.14;19.37
71801;HTU21D;59647;55.838;37.292;2023-04-19T15:22:13;18.10;19.85
71801;HTU21D;59647;55.838;37.292;2023-04-19T15:24:39;18.04;19.70
71801;HTU21D;59647;55.838;37.292;2023-04-19T15:27:05;17.85;18.85
71801;HTU21D;59647;55.838;37.292;2023-04-19T15:29:31;17.85;19.45